sensor_id;sensor_type;location;lat;lon;timestamp;P1;durP1;ratioP1;P2;durP2;ratioP2
37873;SDS011;23709;48.078;11.684;2023-06-14T00:01:45;8.43;;;5.85;;
37873;SDS011;23709;48.078;11.684;2023-06-14T00:04:18;10.93;;;5.05;;
37873;SDS011;23709;48.078;11.684;2023-06-14T00:06:52;7.93;;;5.57;;
37873;SDS011;23709;48.078;11.684;2023-06-14T00:09:25;6.63;;;4.78;;
37873;SDS011;23709;48.078;11.684;2023-06-14T00:11:57;7.88;;;4.85;;
37873;SDS011;23709;48.078;11.684;2023-06-14T00:14:29;7.78;;;5.28;;
37873;SDS011;23709;48.078;11.684;2023-06-14T00:17:02;8.32;;;5.20;;
37873;SDS011;23709;48.078;11.684;2023-06-14T00:19:34;11.23;;;5.90;;
37873;SDS011;23709;48.078;11.684;2023-06-14T00:22:08;6.68;;;4.78;;
37873;SDS011;23709;48.078;11.684;2023-06-14T00:24:41;7.22;;;5.20;;
37873;SDS011;23709;48.078;11.684;2023-06-14T00:27:13;12.60;;;5.78;;
37873;SDS011;23709;48.078;11.684;2023-06-14T00:29:46;8.60;;;5.53;;
37873;SDS011;23709;48.078;11.684;2023-06-14T00:32:18;8.15;;;5.25;;
37873;SDS011;23709;48.078;11.684;2023-06-14T00:34:51;7.23;;;5.17;;
37873;SDS011;23709;48.078;11.684;2023-06-14T00:37:23;10.23;;;5.30;;
37873;SDS011;23709;48.078;11.684;2023-06-14T00:39:56;7.05;;;4.93;;
37873;SDS011;23709;48.078;11.684;2023-06-14T00:42:29;8.75;;;5.95;;
37873;SDS011;23709;48.078;11.684;2023-06-14T00:45:01;9.37;;;5.53;;
37873;SDS011;23709;48.078;11.684;2023-06-14T00:47:35;10.70;;;5.72;;
37873;SDS011;23709;48.078;11.684;2023-06-14T00:50:09;8.98;;;5.25;;
37873;SDS011;23709;48.078;11.684;2023-06-14T00:52:42;8.88;;;6.03;;
37873;SDS011;23709;48.078;11.684;2023-06-14T00:55:15;8.70;;;5.55;;
37873;SDS011;23709;48.078;11.684;2023-06-14T00:57:48;10.13;;;5.70;;
37873;SDS011;23709;48.078;11.684;2023-06-14T01:00:21;9.30;;;5.90;;
37873;SDS011;23709;48.078;11.684;2023-06-14T01:03:12;7.28;;;5.53;;
37873;SDS011;23709;48.078;11.684;2023-06-14T01:09:09;9.90;;;5.72;;
37873;SDS011;23709;48.078;11.684;2023-06-14T01:12:04;9.73;;;5.68;;
37873;SDS011;23709;48.078;11.684;2023-06-14T01:14:43;9.10;;;5.70;;
37873;SDS011;23709;48.078;11.684;2023-06-14T01:17:18;10.27;;;5.50;;
37873;SDS011;23709;48.078;11.684;2023-06-14T01:19:52;8.25;;;5.95;;
37873;SDS011;23709;48.078;11.684;2023-06-14T01:22:29;10.45;;;6.13;;
37873;SDS011;23709;48.078;11.684;2023-06-14T01:25:01;8.70;;;6.35;;
37873;SDS011;23709;48.078;11.684;2023-06-14T01:27:34;11.15;;;6.65;;
37873;SDS011;23709;48.078;11.684;2023-06-14T01:30:07;9.10;;;6.63;;
37873;SDS011;23709;48.078;11.684;2023-06-14T01:32:41;9.48;;;6.00;;
37873;SDS011;23709;48.078;11.684;2023-06-14T01:35:14;10.07;;;6.72;;
37873;SDS011;23709;48.078;11.684;2023-06-14T01:37:47;8.55;;;5.53;;
37873;SDS011;23709;48.078;11.684;2023-06-14T01:40:20;9.13;;;5.80;;
37873;SDS011;23709;48.078;11.684;2023-06-14T01:42:54;10.45;;;5.60;;
37873;SDS011;23709;48.078;11.684;2023-06-14T01:45:27;7.80;;;5.88;;
37873;SDS011;23709;48.078;11.684;2023-06-14T01:48:01;8.77;;;6.35;;
37873;SDS011;23709;48.078;11.684;2023-06-14T01:50:35;9.00;;;6.35;;
37873;SDS011;23709;48.078;11.684;2023-06-14T01:53:08;9.30;;;6.40;;
37873;SDS011;23709;48.078;11.684;2023-06-14T01:58:15;10.13;;;6.50;;
37873;SDS011;23709;48.078;11.684;2023-06-14T02:00:48;10.05;;;6.60;;
37873;SDS011;23709;48.078;11.684;2023-06-14T02:03:21;11.80;;;6.00;;
37873;SDS011;23709;48.078;11.684;2023-06-14T02:05:53;9.18;;;6.38;;
37873;SDS011;23709;48.078;11.684;2023-06-14T02:08:27;9.35;;;5.70;;
37873;SDS011;23709;48.078;11.684;2023-06-14T02:10:59;12.40;;;6.32;;
37873;SDS011;23709;48.078;11.684;2023-06-14T02:13:32;9.57;;;6.05;;
37873;SDS011;23709;48.078;11.684;2023-06-14T02:16:04;15.88;;;6.75;;
37873;SDS011;23709;48.078;11.684;2023-06-14T02:18:37;10.65;;;6.38;;
37873;SDS011;23709;48.078;11.684;2023-06-14T02:21:10;9.43;;;5.75;;
37873;SDS011;23709;48.078;11.684;2023-06-14T02:23:42;8.43;;;6.32;;
37873;SDS011;23709;48.078;11.684;2023-06-14T02:26:14;9.07;;;6.10;;
37873;SDS011;23709;48.078;11.684;2023-06-14T02:28:47;9.43;;;6.10;;
37873;SDS011;23709;48.078;11.684;2023-06-14T02:31:19;8.57;;;6.28;;
37873;SDS011;23709;48.078;11.684;2023-06-14T02:33:53;10.25;;;6.80;;
37873;SDS011;23709;48.078;11.684;2023-06-14T02:36:25;14.27;;;6.97;;
37873;SDS011;23709;48.078;11.684;2023-06-14T02:38:57;9.98;;;6.80;;
37873;SDS011;23709;48.078;11.684;2023-06-14T02:41:30;11.05;;;6.53;;
37873;SDS011;23709;48.078;11.684;2023-06-14T02:44:02;8.63;;;6.03;;
37873;SDS011;23709;48.078;11.684;2023-06-14T02:46:36;8.30;;;6.15;;
37873;SDS011;23709;48.078;11.684;2023-06-14T02:49:10;9.93;;;6.22;;
37873;SDS011;23709;48.078;11.684;2023-06-14T02:51:44;13.32;;;6.38;;
37873;SDS011;23709;48.078;11.684;2023-06-14T02:54:17;8.48;;;5.85;;
37873;SDS011;23709;48.078;11.684;2023-06-14T02:56:49;11.18;;;6.65;;
37873;SDS011;23709;48.078;11.684;2023-06-14T02:59:22;9.40;;;6.23;;
37873;SDS011;23709;48.078;11.684;2023-06-14T03:01:59;8.02;;;5.82;;
37873;SDS011;23709;48.078;11.684;2023-06-14T03:04:31;7.90;;;5.65;;
37873;SDS011;23709;48.078;11.684;2023-06-14T03:07:14;8.65;;;5.70;;
37873;SDS011;23709;48.078;11.684;2023-06-14T03:09:55;8.40;;;5.90;;
37873;SDS011;23709;48.078;11.684;2023-06-14T03:12:28;9.55;;;6.88;;
37873;SDS011;23709;48.078;11.684;2023-06-14T03:15:00;11.27;;;6.88;;
37873;SDS011;23709;48.078;11.684;2023-06-14T03:17:41;9.50;;;6.63;;
37873;SDS011;23709;48.078;11.684;2023-06-14T03:20:19;11.38;;;6.50;;
37873;SDS011;23709;48.078;11.684;2023-06-14T03:22:51;10.83;;;6.00;;
37873;SDS011;23709;48.078;11.684;2023-06-14T03:25:26;8.70;;;6.13;;
37873;SDS011;23709;48.078;11.684;2023-06-14T03:28:04;13.40;;;6.53;;
37873;SDS011;23709;48.078;11.684;2023-06-14T03:30:37;9.93;;;6.78;;
37873;SDS011;23709;48.078;11.684;2023-06-14T03:33:10;8.52;;;6.38;;
37873;SDS011;23709;48.078;11.684;2023-06-14T03:35:44;9.52;;;6.55;;
37873;SDS011;23709;48.078;11.684;2023-06-14T03:38:17;12.83;;;7.07;;
37873;SDS011;23709;48.078;11.684;2023-06-14T03:40:49;11.80;;;6.65;;
37873;SDS011;23709;48.078;11.684;2023-06-14T03:43:21;10.75;;;6.70;;
37873;SDS011;23709;48.078;11.684;2023-06-14T03:45:54;10.52;;;6.95;;
37873;SDS011;23709;48.078;11.684;2023-06-14T03:48:28;11.65;;;6.72;;
37873;SDS011;23709;48.078;11.684;2023-06-14T03:51:00;8.70;;;6.40;;
37873;SDS011;23709;48.078;11.684;2023-06-14T03:53:34;8.45;;;6.28;;
37873;SDS011;23709;48.078;11.684;2023-06-14T03:56:15;10.38;;;6.25;;
37873;SDS011;23709;48.078;11.684;2023-06-14T03:58:47;12.43;;;6.95;;
37873;SDS011;23709;48.078;11.684;2023-06-14T04:01:20;13.45;;;6.65;;
37873;SDS011;23709;48.078;11.684;2023-06-14T04:03:52;9.88;;;6.55;;
37873;SDS011;23709;48.078;11.684;2023-06-14T04:06:25;10.90;;;7.32;;
37873;SDS011;23709;48.078;11.684;2023-06-14T04:09:04;9.57;;;6.25;;
37873;SDS011;23709;48.078;11.684;2023-06-14T04:11:37;9.02;;;6.00;;
37873;SDS011;23709;48.078;11.684;2023-06-14T04:14:09;10.75;;;6.43;;
37873;SDS011;23709;48.078;11.684;2023-06-14T04:16:42;10.80;;;6.35;;
37873;SDS011;23709;48.078;11.684;2023-06-14T04:19:17;10.98;;;6.50;;
37873;SDS011;23709;48.078;11.684;2023-06-14T04:21:50;8.35;;;5.93;;
37873;SDS011;23709;48.078;11.684;2023-06-14T04:24:22;11.98;;;7.00;;
37873;SDS011;23709;48.078;11.684;2023-06-14T04:26:55;8.25;;;6.32;;
37873;SDS011;23709;48.078;11.684;2023-06-14T04:29:30;9.20;;;6.68;;
37873;SDS011;23709;48.078;11.684;2023-06-14T04:32:09;8.63;;;6.45;;
37873;SDS011;23709;48.078;11.684;2023-06-14T04:34:43;9.82;;;7.00;;
37873;SDS011;23709;48.078;11.684;2023-06-14T04:37:16;9.07;;;6.70;;
37873;SDS011;23709;48.078;11.684;2023-06-14T04:39:49;8.95;;;6.32;;
37873;SDS011;23709;48.078;11.684;2023-06-14T04:42:23;10.50;;;6.07;;
37873;SDS011;23709;48.078;11.684;2023-06-14T04:44:57;9.23;;;6.30;;
37873;SDS011;23709;48.078;11.684;2023-06-14T04:47:30;11.05;;;6.90;;
37873;SDS011;23709;48.078;11.684;2023-06-14T04:50:03;9.43;;;6.47;;
37873;SDS011;23709;48.078;11.684;2023-06-14T04:52:36;10.52;;;6.60;;
37873;SDS011;23709;48.078;11.684;2023-06-14T04:57:42;10.10;;;6.55;;
37873;SDS011;23709;48.078;11.684;2023-06-14T05:00:15;10.73;;;5.75;;
37873;SDS011;23709;48.078;11.684;2023-06-14T05:02:49;10.13;;;6.45;;
37873;SDS011;23709;48.078;11.684;2023-06-14T05:05:23;9.55;;;6.32;;
37873;SDS011;23709;48.078;11.684;2023-06-14T05:07:56;12.93;;;6.82;;
37873;SDS011;23709;48.078;11.684;2023-06-14T05:10:32;10.27;;;6.40;;
37873;SDS011;23709;48.078;11.684;2023-06-14T05:13:06;10.55;;;6.35;;
37873;SDS011;23709;48.078;11.684;2023-06-14T05:15:39;9.95;;;6.20;;
37873;SDS011;23709;48.078;11.684;2023-06-14T05:18:12;13.40;;;5.68;;
37873;SDS011;23709;48.078;11.684;2023-06-14T05:20:50;12.65;;;6.32;;
37873;SDS011;23709;48.078;11.684;2023-06-14T05:23:24;11.77;;;5.93;;
37873;SDS011;23709;48.078;11.684;2023-06-14T05:25:56;11.65;;;5.43;;
37873;SDS011;23709;48.078;11.684;2023-06-14T05:28:32;9.85;;;5.72;;
37873;SDS011;23709;48.078;11.684;2023-06-14T05:31:05;8.27;;;6.38;;
37873;SDS011;23709;48.078;11.684;2023-06-14T05:33:38;11.80;;;5.25;;
37873;SDS011;23709;48.078;11.684;2023-06-14T05:36:11;13.20;;;6.07;;
37873;SDS011;23709;48.078;11.684;2023-06-14T05:38:44;10.65;;;5.63;;
37873;SDS011;23709;48.078;11.684;2023-06-14T05:41:17;10.20;;;6.47;;
37873;SDS011;23709;48.078;11.684;2023-06-14T05:43:56;9.90;;;5.68;;
37873;SDS011;23709;48.078;11.684;2023-06-14T05:46:29;10.05;;;5.35;;
37873;SDS011;23709;48.078;11.684;2023-06-14T05:49:02;10.50;;;5.47;;
37873;SDS011;23709;48.078;11.684;2023-06-14T05:51:35;8.73;;;6.13;;
37873;SDS011;23709;48.078;11.684;2023-06-14T05:54:07;7.22;;;5.57;;
37873;SDS011;23709;48.078;11.684;2023-06-14T05:56:40;8.93;;;6.18;;
37873;SDS011;23709;48.078;11.684;2023-06-14T05:59:13;9.05;;;5.40;;
37873;SDS011;23709;48.078;11.684;2023-06-14T06:01:46;9.90;;;6.25;;
37873;SDS011;23709;48.078;11.684;2023-06-14T06:04:19;8.15;;;5.60;;
37873;SDS011;23709;48.078;11.684;2023-06-14T06:06:52;15.15;;;6.97;;
37873;SDS011;23709;48.078;11.684;2023-06-14T06:09:25;9.50;;;6.20;;
37873;SDS011;23709;48.078;11.684;2023-06-14T06:11:57;19.73;;;6.38;;
37873;SDS011;23709;48.078;11.684;2023-06-14T06:14:30;15.15;;;6.07;;
37873;SDS011;23709;48.078;11.684;2023-06-14T06:17:03;11.00;;;5.22;;
37873;SDS011;23709;48.078;11.684;2023-06-14T06:19:36;16.63;;;5.85;;
37873;SDS011;23709;48.078;11.684;2023-06-14T06:22:09;9.45;;;5.07;;
37873;SDS011;23709;48.078;11.684;2023-06-14T06:24:42;10.57;;;5.88;;
37873;SDS011;23709;48.078;11.684;2023-06-14T06:27:16;11.25;;;6.18;;
37873;SDS011;23709;48.078;11.684;2023-06-14T06:29:50;9.20;;;6.20;;
37873;SDS011;23709;48.078;11.684;2023-06-14T06:32:23;12.45;;;6.18;;
37873;SDS011;23709;48.078;11.684;2023-06-14T06:34:56;13.10;;;5.68;;
37873;SDS011;23709;48.078;11.684;2023-06-14T06:37:31;12.15;;;6.28;;
37873;SDS011;23709;48.078;11.684;2023-06-14T06:40:04;11.10;;;5.63;;
37873;SDS011;23709;48.078;11.684;2023-06-14T06:42:38;8.43;;;6.25;;
37873;SDS011;23709;48.078;11.684;2023-06-14T06:45:14;9.07;;;5.45;;
37873;SDS011;23709;48.078;11.684;2023-06-14T06:47:47;12.63;;;6.65;;
37873;SDS011;23709;48.078;11.684;2023-06-14T06:50:20;7.80;;;5.72;;
37873;SDS011;23709;48.078;11.684;2023-06-14T06:52:56;7.60;;;5.35;;
37873;SDS011;23709;48.078;11.684;2023-06-14T06:55:31;11.10;;;5.40;;
37873;SDS011;23709;48.078;11.684;2023-06-14T06:58:03;7.55;;;4.80;;
37873;SDS011;23709;48.078;11.684;2023-06-14T07:00:37;12.32;;;5.95;;
37873;SDS011;23709;48.078;11.684;2023-06-14T07:03:10;9.57;;;5.23;;
37873;SDS011;23709;48.078;11.684;2023-06-14T07:05:43;7.75;;;5.35;;
37873;SDS011;23709;48.078;11.684;2023-06-14T07:08:16;9.68;;;5.10;;
37873;SDS011;23709;48.078;11.684;2023-06-14T07:10:49;7.55;;;4.90;;
37873;SDS011;23709;48.078;11.684;2023-06-14T07:13:21;8.45;;;5.57;;
37873;SDS011;23709;48.078;11.684;2023-06-14T07:15:54;9.25;;;4.82;;
37873;SDS011;23709;48.078;11.684;2023-06-14T07:18:29;8.93;;;4.40;;
37873;SDS011;23709;48.078;11.684;2023-06-14T07:21:02;10.10;;;5.20;;
37873;SDS011;23709;48.078;11.684;2023-06-14T07:23:35;10.27;;;5.53;;
37873;SDS011;23709;48.078;11.684;2023-06-14T07:26:07;15.07;;;5.20;;
37873;SDS011;23709;48.078;11.684;2023-06-14T07:28:40;10.82;;;5.13;;
37873;SDS011;23709;48.078;11.684;2023-06-14T07:31:16;6.45;;;4.82;;
37873;SDS011;23709;48.078;11.684;2023-06-14T07:33:50;8.45;;;5.07;;
37873;SDS011;23709;48.078;11.684;2023-06-14T07:36:23;11.47;;;5.47;;
37873;SDS011;23709;48.078;11.684;2023-06-14T07:38:56;9.13;;;5.28;;
37873;SDS011;23709;48.078;11.684;2023-06-14T07:41:29;11.05;;;4.75;;
37873;SDS011;23709;48.078;11.684;2023-06-14T07:44:01;7.47;;;4.80;;
37873;SDS011;23709;48.078;11.684;2023-06-14T07:46:34;7.07;;;4.63;;
37873;SDS011;23709;48.078;11.684;2023-06-14T07:49:07;9.23;;;4.90;;
37873;SDS011;23709;48.078;11.684;2023-06-14T07:51:40;8.30;;;4.65;;
37873;SDS011;23709;48.078;11.684;2023-06-14T07:54:13;7.45;;;4.57;;
37873;SDS011;23709;48.078;11.684;2023-06-14T07:56:46;13.02;;;4.60;;
37873;SDS011;23709;48.078;11.684;2023-06-14T07:59:19;13.88;;;4.78;;
37873;SDS011;23709;48.078;11.684;2023-06-14T08:01:51;7.53;;;4.70;;
37873;SDS011;23709;48.078;11.684;2023-06-14T08:04:24;6.28;;;4.25;;
37873;SDS011;23709;48.078;11.684;2023-06-14T08:06:56;5.72;;;4.15;;
37873;SDS011;23709;48.078;11.684;2023-06-14T08:09:29;4.80;;;3.92;;
37873;SDS011;23709;48.078;11.684;2023-06-14T08:12:01;6.03;;;4.28;;
37873;SDS011;23709;48.078;11.684;2023-06-14T08:14:33;7.00;;;4.45;;
37873;SDS011;23709;48.078;11.684;2023-06-14T08:17:06;6.18;;;4.32;;
37873;SDS011;23709;48.078;11.684;2023-06-14T08:19:39;7.78;;;4.18;;
37873;SDS011;23709;48.078;11.684;2023-06-14T08:24:45;9.48;;;4.18;;
37873;SDS011;23709;48.078;11.684;2023-06-14T08:27:17;7.68;;;3.92;;
37873;SDS011;23709;48.078;11.684;2023-06-14T08:29:51;5.90;;;3.92;;
37873;SDS011;23709;48.078;11.684;2023-06-14T08:32:23;5.20;;;3.90;;
37873;SDS011;23709;48.078;11.684;2023-06-14T08:34:56;7.05;;;3.55;;
37873;SDS011;23709;48.078;11.684;2023-06-14T08:37:49;6.33;;;4.07;;
37873;SDS011;23709;48.078;11.684;2023-06-14T08:40:22;6.05;;;3.78;;
37873;SDS011;23709;48.078;11.684;2023-06-14T08:42:56;7.13;;;3.80;;
37873;SDS011;23709;48.078;11.684;2023-06-14T08:45:29;5.25;;;3.63;;
37873;SDS011;23709;48.078;11.684;2023-06-14T08:48:03;6.88;;;3.60;;
37873;SDS011;23709;48.078;11.684;2023-06-14T08:50:37;6.10;;;3.58;;
37873;SDS011;23709;48.078;11.684;2023-06-14T08:53:13;5.18;;;3.40;;
37873;SDS011;23709;48.078;11.684;2023-06-14T08:55:51;6.38;;;3.75;;
37873;SDS011;23709;48.078;11.684;2023-06-14T08:58:25;6.32;;;3.75;;
37873;SDS011;23709;48.078;11.684;2023-06-14T09:00:57;7.53;;;3.80;;
37873;SDS011;23709;48.078;11.684;2023-06-14T09:03:31;10.20;;;4.15;;
37873;SDS011;23709;48.078;11.684;2023-06-14T09:06:05;6.78;;;4.07;;
37873;SDS011;23709;48.078;11.684;2023-06-14T09:08:43;5.00;;;3.50;;
37873;SDS011;23709;48.078;11.684;2023-06-14T09:11:17;4.60;;;3.35;;
37873;SDS011;23709;48.078;11.684;2023-06-14T09:13:50;10.00;;;4.32;;
37873;SDS011;23709;48.078;11.684;2023-06-14T09:16:23;5.72;;;3.85;;
37873;SDS011;23709;48.078;11.684;2023-06-14T09:18:56;8.40;;;4.10;;
37873;SDS011;23709;48.078;11.684;2023-06-14T09:21:33;9.32;;;4.47;;
37873;SDS011;23709;48.078;11.684;2023-06-14T09:24:13;8.77;;;3.67;;
37873;SDS011;23709;48.078;11.684;2023-06-14T09:26:50;8.25;;;4.65;;
37873;SDS011;23709;48.078;11.684;2023-06-14T09:29:23;8.30;;;4.50;;
37873;SDS011;23709;48.078;11.684;2023-06-14T09:31:56;5.80;;;4.20;;
37873;SDS011;23709;48.078;11.684;2023-06-14T09:34:29;5.30;;;4.28;;
37873;SDS011;23709;48.078;11.684;2023-06-14T09:37:01;7.95;;;4.50;;
37873;SDS011;23709;48.078;11.684;2023-06-14T09:39:34;9.18;;;4.28;;
37873;SDS011;23709;48.078;11.684;2023-06-14T09:42:16;9.90;;;4.03;;
37873;SDS011;23709;48.078;11.684;2023-06-14T09:44:50;5.82;;;4.30;;
37873;SDS011;23709;48.078;11.684;2023-06-14T09:47:23;6.93;;;4.18;;
37873;SDS011;23709;48.078;11.684;2023-06-14T09:49:57;7.50;;;4.90;;
37873;SDS011;23709;48.078;11.684;2023-06-14T09:52:30;10.18;;;4.93;;
37873;SDS011;23709;48.078;11.684;2023-06-14T09:55:04;9.02;;;4.00;;
37873;SDS011;23709;48.078;11.684;2023-06-14T09:57:40;5.03;;;3.92;;
37873;SDS011;23709;48.078;11.684;2023-06-14T10:00:13;6.63;;;4.20;;
37873;SDS011;23709;48.078;11.684;2023-06-14T10:02:49;7.60;;;4.60;;
37873;SDS011;23709;48.078;11.684;2023-06-14T10:05:25;9.77;;;4.50;;
37873;SDS011;23709;48.078;11.684;2023-06-14T10:08:04;8.77;;;4.32;;
37873;SDS011;23709;48.078;11.684;2023-06-14T10:10:39;9.50;;;5.45;;
37873;SDS011;23709;48.078;11.684;2023-06-14T10:13:12;10.77;;;4.80;;
37873;SDS011;23709;48.078;11.684;2023-06-14T10:18:27;10.63;;;4.45;;
37873;SDS011;23709;48.078;11.684;2023-06-14T10:21:11;8.80;;;5.03;;
37873;SDS011;23709;48.078;11.684;2023-06-14T10:23:46;9.52;;;4.80;;
37873;SDS011;23709;48.078;11.684;2023-06-14T10:29:11;14.38;;;5.68;;
37873;SDS011;23709;48.078;11.684;2023-06-14T10:31:45;8.45;;;4.45;;
37873;SDS011;23709;48.078;11.684;2023-06-14T10:34:22;9.35;;;4.65;;
37873;SDS011;23709;48.078;11.684;2023-06-14T10:39:27;8.27;;;4.55;;
37873;SDS011;23709;48.078;11.684;2023-06-14T10:42:01;9.82;;;4.80;;
37873;SDS011;23709;48.078;11.684;2023-06-14T10:47:31;7.82;;;4.05;;
37873;SDS011;23709;48.078;11.684;2023-06-14T10:50:11;7.40;;;4.32;;
37873;SDS011;23709;48.078;11.684;2023-06-14T10:52:46;8.25;;;4.40;;
37873;SDS011;23709;48.078;11.684;2023-06-14T10:55:19;5.93;;;4.27;;
37873;SDS011;23709;48.078;11.684;2023-06-14T10:57:54;7.38;;;4.38;;
37873;SDS011;23709;48.078;11.684;2023-06-14T11:00:28;8.25;;;4.32;;
37873;SDS011;23709;48.078;11.684;2023-06-14T11:05:53;6.45;;;4.22;;
37873;SDS011;23709;48.078;11.684;2023-06-14T11:08:35;12.82;;;4.90;;
37873;SDS011;23709;48.078;11.684;2023-06-14T11:11:33;5.55;;;4.20;;
37873;SDS011;23709;48.078;11.684;2023-06-14T11:14:08;6.75;;;3.83;;
37873;SDS011;23709;48.078;11.684;2023-06-14T11:16:40;9.82;;;4.32;;
37873;SDS011;23709;48.078;11.684;2023-06-14T11:19:12;7.15;;;4.57;;
37873;SDS011;23709;48.078;11.684;2023-06-14T11:21:46;5.85;;;4.88;;
37873;SDS011;23709;48.078;11.684;2023-06-14T11:24:19;5.72;;;4.55;;
37873;SDS011;23709;48.078;11.684;2023-06-14T11:26:52;9.30;;;4.20;;
37873;SDS011;23709;48.078;11.684;2023-06-14T11:29:24;11.25;;;4.63;;
37873;SDS011;23709;48.078;11.684;2023-06-14T11:31:56;6.05;;;4.55;;
37873;SDS011;23709;48.078;11.684;2023-06-14T11:34:32;6.57;;;3.92;;
37873;SDS011;23709;48.078;11.684;2023-06-14T11:37:04;4.50;;;3.87;;
37873;SDS011;23709;48.078;11.684;2023-06-14T11:39:38;10.40;;;4.75;;
37873;SDS011;23709;48.078;11.684;2023-06-14T11:42:15;8.18;;;4.10;;
37873;SDS011;23709;48.078;11.684;2023-06-14T11:44:47;10.93;;;4.63;;
37873;SDS011;23709;48.078;11.684;2023-06-14T11:49:53;6.97;;;4.28;;
37873;SDS011;23709;48.078;11.684;2023-06-14T11:52:25;10.68;;;4.13;;
37873;SDS011;23709;48.078;11.684;2023-06-14T11:54:58;10.38;;;4.70;;
37873;SDS011;23709;48.078;11.684;2023-06-14T11:57:33;7.97;;;4.60;;
37873;SDS011;23709;48.078;11.684;2023-06-14T12:00:07;7.10;;;4.45;;
37873;SDS011;23709;48.078;11.684;2023-06-14T12:02:51;5.18;;;4.25;;
37873;SDS011;23709;48.078;11.684;2023-06-14T12:05:28;9.05;;;3.88;;
37873;SDS011;23709;48.078;11.684;2023-06-14T12:08:02;7.75;;;4.45;;
37873;SDS011;23709;48.078;11.684;2023-06-14T12:10:39;6.80;;;4.13;;
37873;SDS011;23709;48.078;11.684;2023-06-14T12:13:16;7.93;;;4.03;;
37873;SDS011;23709;48.078;11.684;2023-06-14T12:15:54;7.03;;;4.30;;
37873;SDS011;23709;48.078;11.684;2023-06-14T12:18:34;10.38;;;4.72;;
37873;SDS011;23709;48.078;11.684;2023-06-14T12:21:07;7.70;;;4.82;;
37873;SDS011;23709;48.078;11.684;2023-06-14T12:23:46;5.22;;;4.00;;
37873;SDS011;23709;48.078;11.684;2023-06-14T12:26:20;6.63;;;3.97;;
37873;SDS011;23709;48.078;11.684;2023-06-14T12:28:53;5.00;;;3.72;;
37873;SDS011;23709;48.078;11.684;2023-06-14T12:31:26;11.70;;;4.37;;
37873;SDS011;23709;48.078;11.684;2023-06-14T12:33:59;9.55;;;4.68;;
37873;SDS011;23709;48.078;11.684;2023-06-14T12:36:31;7.90;;;4.25;;
37873;SDS011;23709;48.078;11.684;2023-06-14T12:39:04;7.22;;;4.82;;
37873;SDS011;23709;48.078;11.684;2023-06-14T12:41:36;6.95;;;3.92;;
37873;SDS011;23709;48.078;11.684;2023-06-14T12:44:13;6.28;;;4.80;;
37873;SDS011;23709;48.078;11.684;2023-06-14T12:46:45;6.68;;;4.20;;
37873;SDS011;23709;48.078;11.684;2023-06-14T12:49:18;9.70;;;4.35;;
37873;SDS011;23709;48.078;11.684;2023-06-14T12:51:52;8.82;;;4.85;;
37873;SDS011;23709;48.078;11.684;2023-06-14T12:54:24;7.03;;;4.40;;
37873;SDS011;23709;48.078;11.684;2023-06-14T12:57:11;9.15;;;4.75;;
37873;SDS011;23709;48.078;11.684;2023-06-14T12:59:43;6.10;;;4.60;;
37873;SDS011;23709;48.078;11.684;2023-06-14T13:02:16;5.70;;;4.78;;
37873;SDS011;23709;48.078;11.684;2023-06-14T13:04:50;6.72;;;4.63;;
37873;SDS011;23709;48.078;11.684;2023-06-14T13:07:22;5.30;;;4.22;;
37873;SDS011;23709;48.078;11.684;2023-06-14T13:09:54;4.78;;;3.70;;
37873;SDS011;23709;48.078;11.684;2023-06-14T13:12:26;10.98;;;4.45;;
37873;SDS011;23709;48.078;11.684;2023-06-14T13:14:59;5.13;;;4.45;;
37873;SDS011;23709;48.078;11.684;2023-06-14T13:17:31;8.57;;;4.45;;
37873;SDS011;23709;48.078;11.684;2023-06-14T13:20:05;6.30;;;4.25;;
37873;SDS011;23709;48.078;11.684;2023-06-14T13:22:38;7.60;;;4.30;;
37873;SDS011;23709;48.078;11.684;2023-06-14T13:25:11;7.53;;;4.28;;
37873;SDS011;23709;48.078;11.684;2023-06-14T13:27:43;6.83;;;4.30;;
37873;SDS011;23709;48.078;11.684;2023-06-14T13:30:15;6.32;;;4.55;;
37873;SDS011;23709;48.078;11.684;2023-06-14T13:32:48;8.25;;;4.70;;
37873;SDS011;23709;48.078;11.684;2023-06-14T13:35:21;8.18;;;4.38;;
37873;SDS011;23709;48.078;11.684;2023-06-14T13:37:54;6.60;;;4.63;;
37873;SDS011;23709;48.078;11.684;2023-06-14T13:40:26;5.57;;;4.33;;
37873;SDS011;23709;48.078;11.684;2023-06-14T13:42:59;6.32;;;4.25;;
37873;SDS011;23709;48.078;11.684;2023-06-14T13:45:32;5.57;;;4.78;;
37873;SDS011;23709;48.078;11.684;2023-06-14T13:48:04;5.60;;;4.47;;
37873;SDS011;23709;48.078;11.684;2023-06-14T13:50:37;8.05;;;4.32;;
37873;SDS011;23709;48.078;11.684;2023-06-14T13:53:10;9.68;;;4.60;;
37873;SDS011;23709;48.078;11.684;2023-06-14T13:55:42;9.20;;;5.13;;
37873;SDS011;23709;48.078;11.684;2023-06-14T13:58:14;5.33;;;4.53;;
37873;SDS011;23709;48.078;11.684;2023-06-14T14:00:47;8.15;;;4.88;;
37873;SDS011;23709;48.078;11.684;2023-06-14T14:03:19;4.65;;;4.15;;
37873;SDS011;23709;48.078;11.684;2023-06-14T14:05:52;7.67;;;4.57;;
37873;SDS011;23709;48.078;11.684;2023-06-14T14:08:24;11.77;;;4.47;;
37873;SDS011;23709;48.078;11.684;2023-06-14T14:10:57;7.57;;;4.28;;
37873;SDS011;23709;48.078;11.684;2023-06-14T14:13:29;8.95;;;4.47;;
37873;SDS011;23709;48.078;11.684;2023-06-14T14:16:02;6.72;;;4.72;;
37873;SDS011;23709;48.078;11.684;2023-06-14T14:18:36;7.53;;;4.93;;
37873;SDS011;23709;48.078;11.684;2023-06-14T14:21:08;6.63;;;4.60;;
37873;SDS011;23709;48.078;11.684;2023-06-14T14:23:42;5.70;;;4.57;;
37873;SDS011;23709;48.078;11.684;2023-06-14T14:26:16;9.32;;;4.80;;
37873;SDS011;23709;48.078;11.684;2023-06-14T14:28:49;7.10;;;4.32;;
37873;SDS011;23709;48.078;11.684;2023-06-14T14:31:21;4.75;;;4.32;;
37873;SDS011;23709;48.078;11.684;2023-06-14T14:33:53;10.52;;;4.25;;
37873;SDS011;23709;48.078;11.684;2023-06-14T14:36:26;4.93;;;3.97;;
37873;SDS011;23709;48.078;11.684;2023-06-14T14:38:59;9.90;;;4.83;;
37873;SDS011;23709;48.078;11.684;2023-06-14T14:41:32;6.00;;;4.60;;
37873;SDS011;23709;48.078;11.684;2023-06-14T14:44:12;5.25;;;4.75;;
37873;SDS011;23709;48.078;11.684;2023-06-14T14:46:44;10.23;;;4.45;;
37873;SDS011;23709;48.078;11.684;2023-06-14T14:49:17;8.13;;;4.07;;
37873;SDS011;23709;48.078;11.684;2023-06-14T14:51:50;4.88;;;3.83;;
37873;SDS011;23709;48.078;11.684;2023-06-14T14:54:22;6.53;;;4.13;;
37873;SDS011;23709;48.078;11.684;2023-06-14T14:56:55;7.32;;;5.05;;
37873;SDS011;23709;48.078;11.684;2023-06-14T14:59:28;8.80;;;4.32;;
37873;SDS011;23709;48.078;11.684;2023-06-14T15:02:00;6.93;;;4.33;;
37873;SDS011;23709;48.078;11.684;2023-06-14T15:04:33;4.43;;;3.83;;
37873;SDS011;23709;48.078;11.684;2023-06-14T15:07:06;8.25;;;4.63;;
37873;SDS011;23709;48.078;11.684;2023-06-14T15:09:38;4.78;;;4.28;;
37873;SDS011;23709;48.078;11.684;2023-06-14T15:12:12;6.05;;;4.20;;
37873;SDS011;23709;48.078;11.684;2023-06-14T15:14:44;6.13;;;4.68;;
37873;SDS011;23709;48.078;11.684;2023-06-14T15:17:18;6.30;;;3.92;;
37873;SDS011;23709;48.078;11.684;2023-06-14T15:19:51;7.10;;;4.20;;
37873;SDS011;23709;48.078;11.684;2023-06-14T15:22:24;9.68;;;4.43;;
37873;SDS011;23709;48.078;11.684;2023-06-14T15:24:56;4.63;;;3.83;;
37873;SDS011;23709;48.078;11.684;2023-06-14T15:27:28;8.57;;;4.40;;
37873;SDS011;23709;48.078;11.684;2023-06-14T15:30:00;8.50;;;4.78;;
37873;SDS011;23709;48.078;11.684;2023-06-14T15:32:33;7.47;;;3.92;;
37873;SDS011;23709;48.078;11.684;2023-06-14T15:35:06;10.30;;;4.10;;
37873;SDS011;23709;48.078;11.684;2023-06-14T15:37:39;7.80;;;4.60;;